Time;durP1;ratioP1;P1;durP2;ratioP2;P2;SDS_P1;SDS_P2;PMS_P1;PMS_P2;Temp;Humidity;BMP_temperature;BMP_pressure;BME280_temperature;BME280_humidity;BME280_pressure;Samples;Min_cycle;Max_cycle;Signal;HPM_P1;HPM_P2
2022/07/08 00:00:14;;;;;;;0.90;0.75;;;18.00;99.90;;;;;;5008128;28;20045;-80
2022/07/08 00:02:41;;;;;;;1.65;1.05;;;17.80;99.90;;;;;;5015607;28;20096;-80
2022/07/08 00:05:08;;;;;;;1.88;1.05;;;17.80;99.90;;;;;;5011922;28;20050;-81
2022/07/08 00:07:35;;;;;;;1.85;1.08;;;17.80;99.90;;;;;;5009367;28;20050;-81
2022/07/08 00:10:06;;;;;;;1.77;0.73;;;17.80;99.90;;;;;;5009457;28;20050;-80
2022/07/08 00:12:32;;;;;;;;;;;17.80;99.90;;;;;;5000014;28;20078;-80
2022/07/08 00:14:59;;;;;;;2.10;0.80;;;17.80;99.90;;;;;;5030181;28;19921;-81
2022/07/08 00:17:27;;;;;;;2.30;0.70;;;17.90;99.90;;;;;;4999125;28;20050;-82
2022/07/08 00:19:54;;;;;;;1.50;1.05;;;17.80;99.90;;;;;;5002084;28;20073;-82
2022/07/08 00:22:20;;;;;;;1.63;0.90;;;17.80;99.90;;;;;;5006795;28;20487;-82
2022/07/08 00:24:47;;;;;;;1.25;1.00;;;17.80;99.90;;;;;;5007629;28;20086;-81
2022/07/08 00:27:14;;;;;;;1.98;0.80;;;17.80;99.90;;;;;;5009884;28;20070;-81
2022/07/08 00:29:41;;;;;;;0.95;0.90;;;17.80;99.90;;;;;;5006052;28;20439;-81
2022/07/08 00:32:07;;;;;;;1.42;1.00;;;17.70;99.90;;;;;;5008317;28;20512;-81
2022/07/08 00:34:34;;;;;;;1.92;1.00;;;17.70;99.90;;;;;;5010450;28;20327;-82
2022/07/08 00:37:03;;;;;;;2.17;1.08;;;17.70;99.90;;;;;;5007348;28;20043;-82
2022/07/08 00:39:30;;;;;;;1.27;0.90;;;17.60;99.90;;;;;;5007575;28;20046;-82
2022/07/08 00:41:57;;;;;;;2.58;0.90;;;17.70;99.90;;;;;;5010831;28;20354;-80
2022/07/08 00:44:23;;;;;;;2.40;1.10;;;17.60;99.90;;;;;;5005752;28;20137;-82
2022/07/08 00:46:50;;;;;;;3.53;1.17;;;17.70;99.90;;;;;;5008141;28;20041;-82
2022/07/08 00:49:17;;;;;;;2.10;1.30;;;17.60;99.90;;;;;;5007646;28;20060;-81
2022/07/08 00:51:46;;;;;;;3.50;1.25;;;17.60;99.90;;;;;;5006388;28;20133;-81
2022/07/08 00:54:17;;;;;;;2.33;1.30;;;17.60;99.90;;;;;;5007268;28;20053;-81
2022/07/08 00:56:45;;;;;;;1.27;1.10;;;17.60;99.90;;;;;;5007104;28;20060;-82
2022/07/08 00:59:12;;;;;;;1.42;1.30;;;17.60;99.90;;;;;;5004469;28;20477;-81
2022/07/08 01:01:39;;;;;;;4.97;0.93;;;17.60;99.90;;;;;;5006653;28;20112;-80
2022/07/08 01:04:06;;;;;;;1.77;0.85;;;17.60;99.90;;;;;;5006207;28;20139;-80
2022/07/08 01:06:34;;;;;;;4.30;1.25;;;17.60;99.90;;;;;;5003787;28;20066;-79
2022/07/08 01:09:01;;;;;;;1.73;1.10;;;17.50;99.90;;;;;;5006002;28;20420;-80
2022/07/08 01:11:28;;;;;;;1.40;1.20;;;17.50;99.90;;;;;;5005818;28;20050;-80
2022/07/08 01:13:55;;;;;;;4.40;1.27;;;17.40;99.90;;;;;;5003787;28;20077;-80
2022/07/08 01:16:22;;;;;;;3.25;1.02;;;17.40;99.90;;;;;;5002572;28;20050;-81
2022/07/08 01:18:49;;;;;;;1.77;1.00;;;17.40;99.90;;;;;;5004548;28;20050;-82
2022/07/08 01:21:16;;;;;;;3.35;1.42;;;17.40;99.90;;;;;;5006162;28;20074;-81
2022/07/08 01:23:43;;;;;;;1.23;1.10;;;17.40;99.90;;;;;;5003700;28;20073;-81
2022/07/08 01:26:11;;;;;;;1.73;1.13;;;17.40;99.90;;;;;;5006014;28;20843;-82
2022/07/08 01:28:40;;;;;;;1.20;1.10;;;17.30;99.90;;;;;;5006942;28;20084;-81
2022/07/08 01:31:07;;;;;;;3.35;1.40;;;17.40;99.90;;;;;;5013188;28;20046;-82
2022/07/08 01:33:34;;;;;;;1.73;1.02;;;17.40;99.90;;;;;;5007748;28;20049;-83
2022/07/08 01:36:01;;;;;;;3.00;1.20;;;17.40;99.90;;;;;;5025726;28;20081;-83
2022/07/08 01:38:27;;;;;;;2.28;1.10;;;17.40;99.90;;;;;;5006034;28;20078;-82
2022/07/08 01:40:55;;;;;;;1.85;1.35;;;17.50;99.90;;;;;;5008547;28;20133;-83
2022/07/08 01:43:22;;;;;;;1.20;1.10;;;17.40;99.90;;;;;;5022253;28;20551;-81
2022/07/08 01:45:48;;;;;;;1.98;0.98;;;17.50;99.90;;;;;;5012642;28;20043;-81
2022/07/08 01:48:15;;;;;;;6.47;1.38;;;17.50;99.90;;;;;;5009123;28;20078;-81
2022/07/08 01:50:42;;;;;;;3.47;1.58;;;17.60;99.90;;;;;;5008275;28;20100;-81
2022/07/08 01:53:09;;;;;;;5.45;1.85;;;17.60;99.90;;;;;;5014866;28;20499;-82
2022/07/08 01:55:36;;;;;;;1.17;0.90;;;17.60;99.90;;;;;;5010105;28;20049;-81
2022/07/08 01:58:02;;;;;;;4.03;1.17;;;17.70;99.90;;;;;;5008577;28;20081;-81
2022/07/08 02:00:29;;;;;;;1.20;1.10;;;17.70;99.90;;;;;;5008882;28;20061;-81
2022/07/08 02:02:56;;;;;;;2.88;1.30;;;17.70;99.90;;;;;;5027353;28;20424;-82
2022/07/08 02:05:23;;;;;;;1.85;1.23;;;17.70;99.90;;;;;;5009551;28;20046;-82
2022/07/08 02:07:50;;;;;;;1.52;1.02;;;17.70;99.90;;;;;;5007588;28;20046;-82
2022/07/08 02:10:17;;;;;;;3.25;1.10;;;17.70;99.90;;;;;;5014547;28;20109;-81
2022/07/08 02:12:43;;;;;;;2.45;0.98;;;17.70;99.90;;;;;;5008640;28;20072;-82
2022/07/08 02:15:10;;;;;;;1.30;1.10;;;17.70;99.90;;;;;;5006852;28;20046;-82
2022/07/08 02:17:39;;;;;;;1.58;1.13;;;17.70;99.90;;;;;;5016829;28;20045;-82
2022/07/08 02:20:08;;;;;;;2.00;1.13;;;17.70;99.90;;;;;;5020788;28;20050;-82
2022/07/08 02:22:35;;;;;;;1.57;1.17;;;17.60;99.90;;;;;;5021097;28;20050;-81
2022/07/08 02:25:02;;;;;;;3.53;1.30;;;17.60;99.90;;;;;;5023273;28;20045;-81
2022/07/08 02:27:29;;;;;;;1.60;1.33;;;17.60;99.90;;;;;;5021337;28;20054;-83
2022/07/08 02:29:56;;;;;;;3.35;1.80;;;17.60;99.90;;;;;;5025323;28;20053;-83
2022/07/08 02:32:22;;;;;;;1.85;1.20;;;17.50;99.90;;;;;;5031060;28;20034;-83
2022/07/08 02:34:49;;;;;;;3.38;1.67;;;17.50;99.90;;;;;;5023105;28;20054;-82
2022/07/08 02:37:16;;;;;;;1.20;1.10;;;17.40;99.90;;;;;;5022084;28;20034;-83
2022/07/08 02:39:43;;;;;;;4.40;1.17;;;17.50;99.90;;;;;;5021689;28;20053;-82
2022/07/08 02:42:09;;;;;;;3.47;1.70;;;17.40;99.90;;;;;;5022822;28;20069;-80
2022/07/08 02:44:36;;;;;;;2.97;1.60;;;17.30;99.90;;;;;;5022629;28;20031;-82
2022/07/08 02:47:05;;;;;;;3.10;1.00;;;17.30;99.90;;;;;;5022739;28;20030;-82
2022/07/08 02:49:32;;;;;;;5.40;1.50;;;17.10;99.90;;;;;;5021103;28;20038;-81
2022/07/08 02:51:58;;;;;;;3.25;1.58;;;17.10;99.90;;;;;;5022406;28;20069;-82
2022/07/08 02:54:25;;;;;;;2.45;1.30;;;17.00;99.90;;;;;;5008817;28;20109;-82
2022/07/08 02:56:52;;;;;;;1.88;1.42;;;17.00;99.90;;;;;;5013978;28;20571;-80
2022/07/08 02:59:18;;;;;;;2.08;1.33;;;17.00;99.90;;;;;;5009874;28;20277;-82
2022/07/08 03:01:45;;;;;;;3.88;1.38;;;17.00;99.90;;;;;;5010025;28;20130;-81
2022/07/08 03:04:12;;;;;;;2.15;1.40;;;17.00;99.90;;;;;;5012382;28;20045;-82
2022/07/08 03:06:39;;;;;;;5.78;1.48;;;17.00;99.90;;;;;;5011948;28;20050;-81
2022/07/08 03:09:06;;;;;;;3.92;1.52;;;16.90;99.90;;;;;;5007146;28;20566;-81
2022/07/08 03:11:32;;;;;;;3.38;1.58;;;16.90;99.90;;;;;;5008484;28;20051;-80
2022/07/08 03:13:59;;;;;;;3.88;1.90;;;16.90;99.90;;;;;;5009678;28;20089;-81
2022/07/08 03:16:31;;;;;;;2.15;1.40;;;16.80;99.90;;;;;;5011066;28;20054;-81
2022/07/08 03:18:58;;;;;;;5.35;1.70;;;16.80;99.90;;;;;;5023869;28;20046;-81
2022/07/08 03:21:25;;;;;;;3.97;1.48;;;16.70;99.90;;;;;;5011092;28;20045;-80
2022/07/08 03:23:51;;;;;;;1.65;1.30;;;16.70;99.90;;;;;;5028767;28;20046;-80
2022/07/08 03:26:18;;;;;;;5.88;1.80;;;16.70;99.90;;;;;;5008622;28;20090;-80
2022/07/08 03:28:45;;;;;;;2.22;1.30;;;16.60;99.90;;;;;;5010209;28;20133;-80
2022/07/08 03:31:11;;;;;;;3.00;1.40;;;16.50;99.90;;;;;;5008577;28;20496;-80
2022/07/08 03:33:38;;;;;;;5.28;1.45;;;16.50;99.90;;;;;;5008027;28;20074;-80
2022/07/08 03:36:08;;;;;;;4.78;1.70;;;16.50;99.90;;;;;;5011163;28;20081;-81
2022/07/08 03:38:36;;;;;;;7.75;2.20;;;16.50;99.90;;;;;;5010296;28;20050;-80
2022/07/08 03:41:22;;;;;;;2.45;1.40;;;16.50;99.90;;;;;;5008061;28;20057;-83
2022/07/08 03:43:51;;;;;;;3.17;1.55;;;16.50;99.90;;;;;;5008124;28;20053;-81
2022/07/08 03:46:18;;;;;;;4.60;1.70;;;16.40;99.90;;;;;;5010482;28;20128;-82
2022/07/08 03:48:45;;;;;;;4.57;1.52;;;16.50;99.90;;;;;;5008298;28;20081;-82
2022/07/08 03:51:13;;;;;;;5.72;1.60;;;16.40;99.90;;;;;;5008563;28;20074;-82
2022/07/08 03:53:41;;;;;;;4.80;1.85;;;16.40;99.90;;;;;;5010055;28;20050;-81
2022/07/08 03:56:08;;;;;;;3.38;1.70;;;16.40;99.90;;;;;;5008754;28;20576;-83
2022/07/08 03:58:35;;;;;;;3.40;1.58;;;16.30;99.90;;;;;;5007568;28;20053;-83
2022/07/08 04:01:03;;;;;;;2.50;1.50;;;16.20;99.90;;;;;;5007473;28;20081;-82
2022/07/08 04:03:30;;;;;;;5.35;1.80;;;16.20;99.90;;;;;;5015615;28;20046;-83
2022/07/08 04:05:56;;;;;;;2.70;1.98;;;16.10;99.90;;;;;;5018132;28;20129;-81
2022/07/08 04:08:23;;;;;;;2.25;1.67;;;16.10;99.90;;;;;;5007465;28;20472;-83
2022/07/08 04:10:50;;;;;;;5.60;2.15;;;16.10;99.90;;;;;;5009603;28;20045;-81
2022/07/08 04:13:16;;;;;;;5.20;2.03;;;16.10;99.90;;;;;;5025378;28;20103;-82
2022/07/08 04:15:50;;;;;;;4.63;1.90;;;16.10;99.90;;;;;;5009679;28;20104;-80
2022/07/08 04:18:17;;;;;;;4.35;1.92;;;16.00;99.90;;;;;;5015609;28;20050;-80
2022/07/08 04:20:44;;;;;;;3.67;1.70;;;16.00;99.90;;;;;;5005228;28;20043;-80
2022/07/08 04:23:11;;;;;;;6.72;2.53;;;16.00;99.90;;;;;;5008633;28;20053;-81
2022/07/08 04:25:38;;;;;;;5.38;1.80;;;16.00;99.90;;;;;;5006947;28;20416;-81
2022/07/08 04:28:05;;;;;;;2.83;1.70;;;15.90;99.90;;;;;;5006911;28;20137;-81
2022/07/08 04:30:31;;;;;;;4.55;1.60;;;15.90;99.90;;;;;;5006733;28;20088;-80
2022/07/08 04:32:58;;;;;;;6.63;2.47;;;16.00;99.90;;;;;;5005315;28;20057;-80
2022/07/08 04:35:25;;;;;;;4.93;1.80;;;16.00;99.90;;;;;;5006624;28;20138;-80
2022/07/08 04:37:51;;;;;;;5.35;1.77;;;16.00;99.90;;;;;;5008023;28;20139;-81
2022/07/08 04:40:26;;;;;;;7.85;1.67;;;16.10;99.90;;;;;;5012758;28;20045;-83
2022/07/08 04:42:52;;;;;;;4.57;1.80;;;16.10;99.90;;;;;;5008563;28;20141;-81
2022/07/08 04:45:19;;;;;;;7.22;1.92;;;16.20;99.90;;;;;;5004653;28;20158;-81
2022/07/08 04:47:46;;;;;;;7.00;2.10;;;16.10;99.90;;;;;;5011187;28;20472;-81
2022/07/08 04:50:13;;;;;;;6.07;1.85;;;16.10;99.90;;;;;;5009768;28;20077;-81
2022/07/08 04:52:39;;;;;;;5.78;1.77;;;16.20;99.90;;;;;;5011781;28;20487;-81
2022/07/08 04:55:07;;;;;;;8.73;1.63;;;16.40;99.90;;;;;;5006102;28;20153;-81
2022/07/08 04:57:34;;;;;;;8.07;1.80;;;16.40;99.90;;;;;;5007957;28;20427;-81
2022/07/08 05:00:02;;;;;;;8.60;2.15;;;16.50;99.90;;;;;;5008416;28;20078;-81
2022/07/08 05:02:29;;;;;;;6.78;1.92;;;16.60;99.90;;;;;;5009055;28;20049;-82
2022/07/08 05:04:56;;;;;;;9.23;2.72;;;16.70;99.90;;;;;;5009148;28;20046;-81
2022/07/08 05:07:22;;;;;;;5.18;2.45;;;16.80;99.90;;;;;;5021827;28;20046;-81
2022/07/08 05:09:49;;;;;;;8.32;2.40;;;16.90;99.90;;;;;;5019441;28;20082;-79
2022/07/08 05:12:16;;;;;;;8.63;2.78;;;17.00;99.90;;;;;;5018300;28;20037;-80
2022/07/08 05:14:43;;;;;;;5.88;2.35;;;17.00;99.90;;;;;;5021604;28;20042;-81
2022/07/08 05:17:09;;;;;;;7.47;2.22;;;17.00;99.90;;;;;;5021592;28;20050;-79
2022/07/08 05:19:36;;;;;;;6.50;2.65;;;17.00;99.90;;;;;;5018210;28;20046;-81
2022/07/08 05:22:03;;;;;;;8.77;2.85;;;17.10;99.90;;;;;;5019493;28;20085;-80
2022/07/08 05:24:30;;;;;;;10.30;3.08;;;17.10;99.90;;;;;;5019050;28;20722;-81
2022/07/08 05:26:57;;;;;;;8.60;2.67;;;17.10;99.90;;;;;;5013703;28;20042;-82
2022/07/08 05:29:23;;;;;;;10.80;3.05;;;17.10;99.90;;;;;;5015629;28;20104;-81
2022/07/08 05:31:53;;;;;;;10.57;2.85;;;17.10;99.90;;;;;;5013099;28;20132;-81
2022/07/08 05:34:21;;;;;;;6.45;2.75;;;17.10;99.90;;;;;;5013529;28;20793;-81
2022/07/08 05:36:48;;;;;;;7.20;2.65;;;17.10;99.90;;;;;;5012240;28;20088;-81
2022/07/08 05:39:15;;;;;;;7.30;2.95;;;17.10;99.90;;;;;;5011080;28;20074;-81
2022/07/08 05:41:42;;;;;;;8.07;2.95;;;17.10;99.90;;;;;;5011349;28;20085;-81
2022/07/08 05:44:09;;;;;;;7.57;2.85;;;17.20;99.90;;;;;;5011363;28;20399;-81
2022/07/08 05:46:36;;;;;;;11.20;3.22;;;17.20;99.90;;;;;;5014062;28;20068;-82
2022/07/08 05:49:03;;;;;;;6.68;2.78;;;17.20;99.90;;;;;;5013082;28;20054;-81
2022/07/08 05:51:29;;;;;;;7.85;2.90;;;17.00;99.90;;;;;;5016248;28;20053;-83
2022/07/08 05:53:56;;;;;;;6.45;2.67;;;17.00;99.90;;;;;;5021511;28;20075;-84
2022/07/08 05:56:23;;;;;;;11.73;3.00;;;17.10;99.90;;;;;;5013612;28;20097;-83
2022/07/08 05:58:50;;;;;;;8.73;3.30;;;17.20;99.90;;;;;;5010385;28;20755;-80
2022/07/08 06:01:16;;;;;;;12.73;3.65;;;17.10;99.90;;;;;;5013606;28;20128;-81
2022/07/08 06:03:43;;;;;;;9.35;3.58;;;17.10;99.90;;;;;;5019413;28;20076;-81
2022/07/08 06:06:10;;;;;;;7.32;2.63;;;17.10;99.90;;;;;;5027380;28;20431;-79
2022/07/08 06:08:37;;;;;;;11.43;3.40;;;17.10;99.90;;;;;;5026971;28;20143;-83
2022/07/08 06:11:04;;;;;;;12.98;3.75;;;17.10;99.90;;;;;;5018445;28;20046;-81
2022/07/08 06:13:31;;;;;;;11.25;2.80;;;17.00;99.90;;;;;;5015268;28;20065;-83
2022/07/08 06:15:57;;;;;;;11.77;3.13;;;17.00;99.90;;;;;;5021153;28;20538;-84
2022/07/08 06:18:24;;;;;;;9.95;2.70;;;17.00;99.90;;;;;;5017006;28;20077;-84
2022/07/08 06:20:51;;;;;;;6.68;2.55;;;16.90;99.90;;;;;;5013309;28;20097;-81
2022/07/08 06:23:18;;;;;;;8.60;2.95;;;16.80;99.90;;;;;;5012043;28;20073;-80
2022/07/08 06:25:45;;;;;;;9.25;3.20;;;16.80;99.90;;;;;;5010484;28;20545;-82
2022/07/08 06:28:11;;;;;;;9.43;2.97;;;16.80;99.90;;;;;;5009865;28;20050;-83
2022/07/08 06:30:38;;;;;;;8.90;3.38;;;16.80;99.90;;;;;;5010220;28;20057;-83
2022/07/08 06:33:05;;;;;;;7.90;3.13;;;16.90;99.90;;;;;;5019947;28;20427;-83
2022/07/08 06:35:33;;;;;;;3.97;2.53;;;16.90;99.90;;;;;;5021397;28;20057;-82
2022/07/08 06:37:59;;;;;;;7.05;3.25;;;16.90;99.90;;;;;;5022716;28;20320;-83
2022/07/08 06:40:27;;;;;;;9.40;3.25;;;17.00;99.90;;;;;;5023298;28;20401;-83
2022/07/08 06:42:54;;;;;;;8.75;2.95;;;17.00;99.90;;;;;;5021336;28;20085;-82
2022/07/08 06:45:20;;;;;;;10.85;2.75;;;17.00;99.90;;;;;;5006782;28;20093;-83
2022/07/08 06:47:47;;;;;;;7.53;2.50;;;17.10;99.90;;;;;;5027128;28;20574;-81
2022/07/08 06:50:14;;;;;;;9.00;2.60;;;17.10;99.90;;;;;;5016249;28;20464;-82
2022/07/08 06:52:40;;;;;;;7.53;2.55;;;17.10;99.90;;;;;;5025566;28;20621;-82
2022/07/08 06:55:08;;;;;;;9.40;3.10;;;17.20;99.90;;;;;;5007386;28;20061;-84
2022/07/08 06:57:35;;;;;;;8.13;2.63;;;17.20;99.90;;;;;;5032086;28;20470;-83
2022/07/08 07:00:04;;;;;;;8.32;2.90;;;17.10;99.90;;;;;;5016164;28;20053;-83
2022/07/08 07:02:48;;;;;;;6.07;2.58;;;17.30;99.90;;;;;;5018254;28;20052;-83
2022/07/08 07:05:15;;;;;;;7.68;2.35;;;17.30;99.90;;;;;;5016945;28;20054;-83
2022/07/08 07:07:42;;;;;;;11.13;2.70;;;17.30;99.90;;;;;;5017377;28;20069;-83
2022/07/08 07:10:09;;;;;;;9.48;2.95;;;17.30;99.90;;;;;;5011674;28;20128;-82
2022/07/08 07:12:36;;;;;;;9.60;3.63;;;17.30;99.90;;;;;;5016886;28;20054;-80
2022/07/08 07:15:03;;;;;;;6.32;1.92;;;17.30;99.90;;;;;;5004207;28;20227;-82
2022/07/08 07:17:30;;;;;;;4.28;2.65;;;17.40;99.90;;;;;;5012982;28;20054;-82
2022/07/08 07:19:58;;;;;;;7.63;2.55;;;17.50;99.90;;;;;;5004935;28;20121;-82
2022/07/08 07:22:27;;;;;;;6.75;2.35;;;17.50;99.90;;;;;;5007566;28;20105;-82
2022/07/08 07:24:53;;;;;;;3.85;2.33;;;17.50;99.90;;;;;;5009326;28;20046;-83
2022/07/08 07:27:20;;;;;;;9.80;2.97;;;17.50;99.90;;;;;;5008696;28;20050;-83
2022/07/08 07:29:47;;;;;;;12.13;2.78;;;17.40;99.90;;;;;;5023575;28;20707;-84
2022/07/08 07:32:14;;;;;;;11.50;2.83;;;17.50;99.90;;;;;;5009554;28;20109;-80
2022/07/08 07:34:41;;;;;;;10.65;2.72;;;17.50;99.90;;;;;;5006475;28;20735;-82
2022/07/08 07:37:07;;;;;;;6.03;2.60;;;17.50;99.90;;;;;;5008368;28;20074;-83
2022/07/08 07:39:35;;;;;;;9.02;2.85;;;17.60;99.90;;;;;;5011152;28;20049;-83
2022/07/08 07:42:02;;;;;;;7.63;2.97;;;17.60;99.90;;;;;;5023876;28;20055;-83
2022/07/08 07:44:29;;;;;;;6.50;2.72;;;17.70;99.90;;;;;;5005901;28;20050;-82
2022/07/08 07:46:55;;;;;;;7.25;2.63;;;17.70;99.90;;;;;;5004965;28;20133;-82
2022/07/08 07:49:22;;;;;;;6.30;2.47;;;17.70;99.90;;;;;;5005699;28;20080;-82
2022/07/08 07:51:49;;;;;;;8.57;2.60;;;17.70;99.90;;;;;;5009788;28;20081;-83
2022/07/08 07:54:15;;;;;;;8.70;2.40;;;17.80;99.90;;;;;;5013571;28;20073;-84
2022/07/08 07:56:42;;;;;;;8.40;2.67;;;17.90;99.90;;;;;;5009953;28;20050;-83
2022/07/08 07:59:09;;;;;;;10.05;2.40;;;17.90;99.90;;;;;;5020660;28;20111;-84
2022/07/08 08:01:35;;;;;;;6.60;2.47;;;17.80;99.90;;;;;;5016518;28;20046;-83
2022/07/08 08:04:02;;;;;;;7.00;2.40;;;17.90;99.90;;;;;;5020487;28;20057;-81
2022/07/08 08:06:29;;;;;;;7.15;2.60;;;18.00;99.90;;;;;;5014774;28;20060;-81
2022/07/08 08:08:57;;;;;;;5.85;2.25;;;18.00;99.90;;;;;;5026577;28;20046;-82
2022/07/08 08:11:24;;;;;;;7.47;2.42;;;18.10;99.90;;;;;;5022127;28;20050;-83
2022/07/08 08:13:51;;;;;;;12.27;3.13;;;18.10;99.90;;;;;;5019993;28;20046;-82
2022/07/08 08:16:18;;;;;;;6.40;2.10;;;18.20;99.90;;;;;;5015012;28;20519;-82
2022/07/08 08:18:44;;;;;;;7.60;1.90;;;18.20;99.90;;;;;;5012156;28;20133;-82
2022/07/08 08:21:11;;;;;;;7.18;2.60;;;18.20;99.90;;;;;;5018131;28;20077;-83
2022/07/08 08:23:38;;;;;;;6.38;2.40;;;18.20;99.90;;;;;;5025135;28;20050;-84
2022/07/08 08:26:05;;;;;;;6.47;2.53;;;18.30;99.90;;;;;;5013264;28;20136;-83
2022/07/08 08:28:31;;;;;;;9.52;2.50;;;18.30;99.90;;;;;;5002591;28;20638;-84
2022/07/08 08:30:59;;;;;;;8.15;2.40;;;18.30;99.90;;;;;;5005350;28;20061;-83
2022/07/08 08:33:26;;;;;;;7.88;2.35;;;18.30;99.90;;;;;;5005260;28;20050;-83
2022/07/08 08:35:53;;;;;;;7.35;2.17;;;18.40;99.90;;;;;;5011089;28;20066;-83
2022/07/08 08:38:19;;;;;;;6.22;2.25;;;18.30;99.90;;;;;;5019315;28;20200;-84
2022/07/08 08:40:47;;;;;;;9.88;2.63;;;18.40;99.90;;;;;;5010075;28;20230;-84
2022/07/08 08:43:14;;;;;;;5.43;1.83;;;18.50;99.90;;;;;;5010873;28;20077;-82
2022/07/08 08:45:43;;;;;;;5.47;2.07;;;18.60;99.90;;;;;;5019730;28;20042;-84
2022/07/08 08:48:11;;;;;;;8.15;2.75;;;18.60;99.90;;;;;;5023531;28;20054;-82
2022/07/08 08:50:55;;;;;;;6.78;2.08;;;18.70;99.90;;;;;;5023910;28;20049;-84
2022/07/08 08:53:43;;;;;;;7.03;2.10;;;18.70;99.90;;;;;;5021962;28;20068;-84
2022/07/08 08:56:11;;;;;;;8.40;2.20;;;18.80;99.90;;;;;;5022551;28;20068;-85
2022/07/08 08:58:39;;;;;;;6.05;2.20;;;18.80;99.90;;;;;;5019017;28;20053;-85
2022/07/08 09:01:07;;;;;;;7.95;2.10;;;18.80;99.90;;;;;;5005237;28;20054;-82
2022/07/08 09:03:35;;;;;;;8.23;2.03;;;18.80;99.90;;;;;;5019961;28;20073;-79
2022/07/08 09:06:04;;;;;;;7.07;2.15;;;18.90;99.90;;;;;;5006232;28;20093;-84
2022/07/08 09:08:31;;;;;;;11.60;2.60;;;18.90;99.90;;;;;;5020086;28;20049;-83
2022/07/08 09:10:59;;;;;;;8.40;2.08;;;19.00;99.90;;;;;;5007230;28;20050;-83
2022/07/08 09:13:26;;;;;;;8.02;2.10;;;19.00;99.90;;;;;;5006324;28;20065;-82
2022/07/08 09:15:57;;;;;;;5.75;2.00;;;19.00;99.90;;;;;;5014450;28;20052;-84
2022/07/08 09:18:31;;;;;;;5.78;1.92;;;19.10;99.90;;;;;;5019945;28;20116;-84
2022/07/08 09:21:00;;;;;;;6.57;1.98;;;19.10;99.90;;;;;;5021412;28;20046;-84
2022/07/08 09:23:29;;;;;;;11.93;2.97;;;19.20;99.90;;;;;;5022019;28;20408;-84
2022/07/08 09:25:59;;;;;;;6.53;2.38;;;19.20;99.90;;;;;;5014446;28;20080;-85
2022/07/08 09:28:36;;;;;;;7.55;2.10;;;19.20;99.90;;;;;;5011938;28;20092;-83
2022/07/08 09:31:04;;;;;;;4.63;1.70;;;19.20;99.90;;;;;;5018158;28;20050;-83
2022/07/08 09:33:31;;;;;;;8.15;1.80;;;19.20;99.90;;;;;;5004650;28;20073;-84
2022/07/08 09:36:00;;;;;;;7.18;1.83;;;19.20;99.90;;;;;;5002513;28;20050;-83
2022/07/08 09:38:35;;;;;;;5.88;1.50;;;19.30;99.90;;;;;;5016983;28;20078;-84
2022/07/08 09:41:09;;;;;;;5.22;1.80;;;19.40;99.90;;;;;;5005776;28;20046;-85
2022/07/08 09:43:44;;;;;;;7.68;2.10;;;19.40;99.90;;;;;;5003974;28;20125;-84
2022/07/08 09:46:11;;;;;;;7.35;1.95;;;19.50;99.90;;;;;;5007337;28;20053;-84
2022/07/08 09:48:38;;;;;;;9.23;2.33;;;19.50;99.90;;;;;;5022783;28;20068;-84
2022/07/08 09:51:08;;;;;;;6.18;1.92;;;19.60;99.90;;;;;;5006180;28;20046;-85
2022/07/08 09:53:40;;;;;;;4.90;1.75;;;19.70;99.90;;;;;;5011089;28;20165;-84
2022/07/08 09:56:08;;;;;;;7.18;2.10;;;19.80;99.90;;;;;;5022108;28;20046;-84
2022/07/08 09:58:36;;;;;;;11.82;2.50;;;19.80;99.90;;;;;;5023905;28;20531;-84
2022/07/08 10:01:03;;;;;;;10.80;2.58;;;19.90;99.90;;;;;;5024376;28;20056;-84
2022/07/08 10:03:30;;;;;;;3.42;1.50;;;19.90;99.90;;;;;;5017831;28;20411;-85
2022/07/08 10:05:59;;;;;;;9.20;2.40;;;19.90;99.90;;;;;;5001404;28;20053;-83
2022/07/08 10:08:26;;;;;;;7.35;2.05;;;20.00;99.90;;;;;;5002487;28;20051;-82
2022/07/08 10:10:57;;;;;;;6.90;1.83;;;20.10;99.90;;;;;;5000060;28;20081;-83
2022/07/08 10:13:25;;;;;;;3.78;1.75;;;20.10;99.90;;;;;;5017676;28;20085;-83
2022/07/08 10:15:57;;;;;;;9.43;1.90;;;20.20;99.90;;;;;;5009122;28;20058;-82
2022/07/08 10:18:33;;;;;;;4.43;1.63;;;20.30;99.90;;;;;;5004480;28;20054;-83
2022/07/08 10:21:03;;;;;;;12.35;1.92;;;20.30;99.90;;;;;;5009046;28;20081;-82
2022/07/08 10:23:59;;;;;;;6.60;2.42;;;20.30;99.90;;;;;;4997977;28;20046;-83
2022/07/08 10:26:32;;;;;;;7.35;2.90;;;20.30;99.90;;;;;;4999310;28;20146;-83
2022/07/08 10:29:04;;;;;;;4.43;1.90;;;20.30;99.90;;;;;;5015901;28;20104;-82
2022/07/08 10:31:48;;;;;;;5.68;1.90;;;20.20;99.90;;;;;;5015628;28;20574;-82
2022/07/08 10:34:19;;;;;;;6.32;1.92;;;20.20;99.90;;;;;;4996118;28;20137;-82
2022/07/08 10:36:49;;;;;;;7.82;2.40;;;20.40;99.90;;;;;;4995514;28;20053;-81
2022/07/08 10:39:27;;;;;;;8.10;1.80;;;20.30;99.90;;;;;;5002137;28;20085;-82
2022/07/08 10:42:02;;;;;;;11.80;1.83;;;20.30;99.90;;;;;;4994408;28;20077;-82
2022/07/08 10:44:44;;;;;;;5.47;1.73;;;20.40;99.90;;;;;;4998314;28;20049;-81
2022/07/08 10:47:12;;;;;;;7.40;2.10;;;20.40;99.90;;;;;;5022473;28;20046;-81
2022/07/08 10:49:46;;;;;;;10.20;1.90;;;20.50;99.90;;;;;;4994105;28;20046;-82
2022/07/08 10:52:14;;;;;;;7.22;1.77;;;20.40;99.90;;;;;;5011884;28;20554;-82
2022/07/08 10:54:42;;;;;;;9.73;1.95;;;20.40;99.90;;;;;;4996752;28;20050;-80
2022/07/08 10:57:26;;;;;;;7.32;1.67;;;20.50;99.90;;;;;;5005025;28;20078;-81
2022/07/08 11:00:13;;;;;;;7.35;1.63;;;20.50;99.90;;;;;;4998683;28;20128;-83
2022/07/08 11:02:43;;;;;;;6.35;1.83;;;20.40;99.90;;;;;;5006952;28;20050;-82
2022/07/08 11:05:35;;;;;;;8.38;1.90;;;20.50;99.90;;;;;;5022408;28;20109;-84
2022/07/08 11:08:21;;;;;;;9.20;2.05;;;20.50;99.90;;;;;;5024358;28;20057;-83
2022/07/08 11:10:51;;;;;;;7.03;1.80;;;20.60;99.90;;;;;;5024570;28;20057;-83
2022/07/08 11:13:21;;;;;;;;;;;20.50;99.90;;;;;;5021741;28;20054;-83
2022/07/08 11:15:48;;;;;;;4.97;1.83;;;20.60;99.90;;;;;;5023253;28;19928;-83
2022/07/08 11:18:22;;;;;;;7.05;1.92;;;20.60;99.90;;;;;;5023101;28;20143;-83
2022/07/08 11:20:50;;;;;;;5.57;2.05;;;20.70;99.90;;;;;;5027666;28;20050;-83
2022/07/08 11:23:20;;;;;;;8.15;1.73;;;20.70;99.90;;;;;;5025773;28;20096;-83
2022/07/08 11:25:58;;;;;;;4.07;1.60;;;20.70;99.90;;;;;;5024920;28;20050;-85
2022/07/08 11:28:24;;;;;;;6.65;1.65;;;20.70;99.90;;;;;;5024533;28;20078;-83
2022/07/08 11:30:53;;;;;;;7.63;1.65;;;20.80;99.90;;;;;;5021842;28;20062;-83
2022/07/08 11:33:40;;;;;;;7.35;1.77;;;20.80;99.90;;;;;;5020507;28;20511;-82
2022/07/08 11:36:18;;;;;;;6.55;1.50;;;20.90;99.90;;;;;;5022705;28;20049;-81
2022/07/08 11:38:46;;;;;;;8.48;2.22;;;20.80;99.90;;;;;;5015291;28;20571;-82
2022/07/08 11:41:13;;;;;;;15.50;2.60;;;20.80;99.90;;;;;;5012706;28;20054;-81
2022/07/08 11:43:42;;;;;;;8.20;1.67;;;20.80;99.90;;;;;;5009441;28;20058;-82
2022/07/08 11:46:19;;;;;;;6.55;1.50;;;20.90;99.90;;;;;;5019387;28;20384;-82
2022/07/08 11:48:47;;;;;;;8.43;1.55;;;20.90;99.90;;;;;;5020260;28;20050;-82
2022/07/08 11:51:15;;;;;;;4.68;1.85;;;20.90;99.90;;;;;;5007865;28;20070;-81
2022/07/08 11:53:42;;;;;;;7.13;1.45;;;21.00;99.90;;;;;;5020390;28;20058;-81
2022/07/08 11:56:09;;;;;;;7.18;1.70;;;20.90;99.90;;;;;;5008877;28;20070;-82
2022/07/08 11:58:40;;;;;;;6.05;1.73;;;21.00;99.90;;;;;;5013414;28;20050;-81
2022/07/08 12:01:07;;;;;;;6.03;1.77;;;21.00;99.90;;;;;;5013513;28;20073;-82
2022/07/08 12:03:34;;;;;;;10.70;1.40;;;21.10;99.90;;;;;;5019291;28;20050;-82
2022/07/08 12:06:02;;;;;;;4.43;1.45;;;21.10;99.90;;;;;;5019001;28;20054;-83
2022/07/08 12:08:32;;;;;;;4.97;1.35;;;21.20;99.90;;;;;;5017740;28;20423;-82
2022/07/08 12:11:17;;;;;;;6.68;1.60;;;21.10;99.90;;;;;;5012464;28;20050;-81
2022/07/08 12:13:51;;;;;;;5.30;1.70;;;21.10;99.90;;;;;;5019898;28;20132;-81
2022/07/08 12:16:29;;;;;;;8.77;2.00;;;21.00;99.90;;;;;;5017479;28;20077;-82
2022/07/08 12:18:56;;;;;;;11.35;2.13;;;21.10;99.90;;;;;;5015037;28;20484;-80
2022/07/08 12:21:24;;;;;;;9.60;1.80;;;21.10;99.90;;;;;;5015484;28;20106;-79
2022/07/08 12:23:55;;;;;;;;;;;21.30;99.90;;;;;;5019176;28;20088;-82
2022/07/08 12:26:22;;;;;;;4.97;1.40;;;21.30;99.90;;;;;;5015987;28;19928;-82
2022/07/08 12:28:49;;;;;;;6.63;1.70;;;21.40;99.90;;;;;;5012035;28;20052;-82
2022/07/08 12:31:41;;;;;;;4.55;1.63;;;21.40;99.90;;;;;;5010964;28;20088;-83
2022/07/08 12:34:14;;;;;;;7.25;1.70;;;21.60;99.90;;;;;;5010569;28;20045;-82
2022/07/08 12:36:41;;;;;;;6.88;2.13;;;21.60;99.90;;;;;;5011873;28;20428;-82
2022/07/08 12:39:31;;;;;;;6.25;1.60;;;21.60;99.90;;;;;;5009186;28;20081;-82
2022/07/08 12:42:00;;;;;;;11.13;1.60;;;21.60;99.90;;;;;;5003311;28;20073;-82
2022/07/08 12:44:40;;;;;;;4.95;1.50;;;21.60;99.90;;;;;;5012853;28;20046;-82
2022/07/08 12:47:08;;;;;;;4.68;1.27;;;21.70;99.90;;;;;;5028605;28;20046;-82
2022/07/08 12:49:36;;;;;;;5.82;1.95;;;21.70;99.90;;;;;;5013765;28;20092;-82
2022/07/08 12:52:05;;;;;;;5.03;1.65;;;21.70;99.90;;;;;;5012921;28;20145;-83